Weather History for Pope Field Airport, NC

Change the Weather History Date:

Thursday, November 15, 2012

  Actual Average Record
Temperature  
Mean Temperature 42 °F -  
Max Temperature 45 °F 64 °F 82 °F (1985)
Min Temperature 39 °F 41 °F 27 °F (2013)
Degree Days  
Heating Degree Days 23    
Moisture  
Dew Point 40 °F    
Average Humidity 90    
Maximum Humidity 100    
Minimum Humidity 66    
Precipitation  
Precipitation 0.83 in - - ()
Sea Level Pressure  
Sea Level Pressure 30.29 in    
Wind  
Wind Speed 8 mph (NNE)    
Max Wind Speed 14 mph    
Max Gust Speed -    
Visibility 7 miles    
Events Rain    
Averages and records for this station are not official NWS values.
T = Trace of Precipitation, MM = Missing Value Source: NWS Daily Summary

Daily Weather History Graph

Daily Weather History Graph

Search for Another Location

Airport:

Trip Planner

Search our weather history database for the weather conditions in past years. The results will help you decide how hot, cold, wet, or windy it might be!

Date:

Astronomy

Nov. 15, 2012 Rise Set
Actual Time 6:51 AM EST 5:09 PM EST
Civil Twilight 6:24 AM EST 5:36 PM EST
Nautical Twilight 5:53 AM EST 6:07 PM EST
Astronomical Twilight 5:23 AM EST 6:37 PM EST
Moon 8:42 AM EST (11/15) 7:01 PM EST (11/15)
Length of Visible Light 11h 12m
Length of Day
10h 18m
Waxing Crescent, 5% of the Moon is Illuminated
Nov 15
Waxing Crescent
Nov 20
First Quarter
Nov 28
Full
Dec 6
Last Quarter
Dec 13
New

Hourly Weather History & Observations

Time (EST) Temp. Windchill Dew Point Humidity Pressure Visibility Wind Dir Wind Speed Gust Speed Precip Events Conditions
12:55 AM 44.4 °F 37.9 °F 34.2 °F 67% 30.35 in 10.0 mi ENE 13.8 mph - N/A   Overcast
1:55 AM 43.9 °F 38.3 °F 33.1 °F 66% 30.33 in 10.0 mi ENE 10.4 mph - N/A   Overcast
2:55 AM 43.7 °F 40.3 °F 33.3 °F 67% 30.33 in 10.0 mi NNE 5.8 mph - N/A   Overcast
3:55 AM 43.2 °F 38.4 °F 34.2 °F 71% 30.31 in 10.0 mi NE 8.1 mph - N/A   Overcast
4:55 AM 42.8 °F 36.6 °F 33.4 °F 70% 30.31 in 10.0 mi NE 11.5 mph - N/A   Overcast
5:25 AM 42.8 °F 37.0 °F 33.8 °F 70% 30.30 in 10.0 mi NE 10.4 mph - N/A   Overcast
5:55 AM 42.4 °F 37.0 °F 33.3 °F 70% 30.30 in 10.0 mi NE 9.2 mph - N/A   Overcast
6:55 AM 42.4 °F 37.5 °F 33.4 °F 70% 30.31 in 10.0 mi NNE 8.1 mph - N/A   Overcast
6:59 AM 42.8 °F 37.0 °F 33.8 °F 70% 30.31 in 9.0 mi NNE 10.4 mph - N/A   Light Drizzle
7:13 AM 42.8 °F 38.0 °F 33.8 °F 70% 30.32 in 9.0 mi NNE 8.1 mph - N/A   Overcast
7:15 AM 42.8 °F 38.0 °F 33.8 °F 70% 30.32 in 9.0 mi North 8.1 mph - N/A   Overcast
7:38 AM 41.0 °F 34.7 °F 32.0 °F 70% 30.33 in 10.0 mi North 10.4 mph - N/A Rain Light Rain
7:55 AM 40.8 °F 35.0 °F 34.3 °F 78% 30.33 in 10.0 mi North 9.2 mph - 0.00 in Rain Light Rain
8:14 AM 41.0 °F 34.7 °F 33.8 °F 76% 30.34 in 10.0 mi NNW 10.4 mph - N/A   Overcast
8:21 AM 41.0 °F 35.8 °F 33.8 °F 76% 30.35 in 10.0 mi NNW 8.1 mph - N/A   Light Drizzle
8:26 AM 41.0 °F 36.4 °F 33.8 °F 76% 30.35 in 10.0 mi NNW 6.9 mph - N/A   Overcast
8:47 AM 39.2 °F 33.6 °F 33.8 °F 81% 30.35 in 10.0 mi North 8.1 mph - N/A Rain Light Rain
8:55 AM 39.7 °F 35.6 °F 34.9 °F 83% 30.35 in 10.0 mi North 5.8 mph - 0.00 in Rain Light Rain
9:03 AM 39.2 °F 35.0 °F 35.6 °F 87% 30.35 in 6.0 mi North 5.8 mph - N/A Rain Rain
9:33 AM 39.2 °F 32.0 °F 35.6 °F 87% 30.32 in 2.5 mi NE 11.5 mph - N/A Rain Rain
9:39 AM 39.2 °F 33.6 °F 37.4 °F 93% 30.32 in 3.0 mi NE 8.1 mph - N/A Rain Rain
9:51 AM 39.2 °F 33.6 °F 37.4 °F 93% 30.32 in 3.0 mi NE 8.1 mph - N/A Rain Heavy Rain
9:55 AM 39.0 °F 34.0 °F 36.7 °F 91% 30.32 in 3.0 mi ENE 6.9 mph - 0.12 in Rain Heavy Rain
9:56 AM 39.2 °F 35.0 °F 37.4 °F 93% 30.32 in 2.5 mi ENE 5.8 mph - N/A Rain Rain
10:07 AM 39.2 °F 35.0 °F 37.4 °F 93% 30.33 in 3.0 mi NNE 5.8 mph - N/A Rain Rain
10:18 AM 39.2 °F - 37.4 °F 93% 30.34 in 2.5 mi Calm Calm - N/A Rain Heavy Rain
10:23 AM 39.2 °F - 37.4 °F 93% 30.34 in 2.0 mi Calm Calm - N/A Rain Heavy Rain
10:24 AM 39.2 °F - 37.4 °F 93% 30.34 in 1.8 mi Calm Calm - N/A Rain Heavy Rain
10:27 AM 39.2 °F 35.9 °F 37.4 °F 93% 30.34 in 1.5 mi NE 4.6 mph - N/A Rain Heavy Rain
10:33 AM 39.2 °F 37.0 °F 37.4 °F 93% 30.34 in 1.8 mi NE 3.5 mph - N/A Rain Rain
10:34 AM 39.2 °F 35.9 °F 37.4 °F 93% 30.34 in 2.0 mi NE 4.6 mph - N/A Rain Rain
10:37 AM 39.2 °F 35.9 °F 37.4 °F 93% 30.33 in 2.5 mi NNE 4.6 mph - N/A Rain Rain
10:41 AM 39.2 °F 35.9 °F 37.4 °F 93% 30.33 in 3.0 mi North 4.6 mph - N/A Rain Heavy Rain
10:55 AM 39.4 °F 35.2 °F 38.1 °F 95% 30.32 in 4.0 mi North 5.8 mph - 0.29 in Rain Heavy Rain
11:44 AM 41.0 °F - 39.2 °F 93% 30.32 in 8.0 mi Calm Calm - N/A Rain Light Rain
11:55 AM 41.5 °F - 39.7 °F 93% 30.32 in 9.0 mi Calm Calm - 0.13 in Rain Light Rain
11:58 AM 41.0 °F 39.0 °F 39.2 °F 93% 30.32 in 8.0 mi NW 3.5 mph - N/A Rain Light Rain
12:11 PM 41.0 °F 39.0 °F 39.2 °F 93% 30.31 in 6.0 mi North 3.5 mph - N/A Rain Rain
12:20 PM 41.0 °F 37.1 °F 39.2 °F 93% 30.30 in 6.0 mi NNE 5.8 mph - N/A Rain Light Rain
12:52 PM 41.0 °F 36.4 °F 41.0 °F 100% 30.27 in 2.5 mi ENE 6.9 mph - N/A Rain Rain
12:55 PM 41.7 °F 35.6 °F 40.5 °F 95% 30.27 in 2.0 mi NE 10.4 mph - 0.09 in Rain Rain
1:00 PM 41.0 °F 34.7 °F 41.0 °F 100% 30.26 in 1.8 mi NE 10.4 mph - N/A Rain Heavy Rain
1:04 PM 41.0 °F 34.7 °F 41.0 °F 100% 30.26 in 2.0 mi NE 10.4 mph - N/A Rain Rain
1:18 PM 41.0 °F 35.2 °F 41.0 °F 100% 30.25 in 2.0 mi NE 9.2 mph - N/A Rain Rain
1:19 PM 42.8 °F 37.5 °F 41.0 °F 93% 30.25 in 2.5 mi NE 9.2 mph - N/A Rain Rain
1:27 PM 42.8 °F 36.6 °F 41.0 °F 93% 30.24 in 2.0 mi NE 11.5 mph - N/A Rain Rain
1:35 PM 42.8 °F 38.0 °F 41.0 °F 93% 30.25 in 2.5 mi NNE 8.1 mph - N/A Rain Heavy Rain
1:36 PM 42.8 °F 38.6 °F 41.0 °F 93% 30.25 in 2.5 mi NNE 6.9 mph - N/A Rain Heavy Rain
1:38 PM 42.8 °F 37.5 °F 41.0 °F 93% 30.24 in 2.5 mi NNE 9.2 mph - N/A Rain Heavy Rain
1:40 PM 42.8 °F 37.0 °F 41.0 °F 93% 30.24 in 3.0 mi NNE 10.4 mph - N/A Rain Heavy Rain
1:47 PM 42.8 °F 37.0 °F 41.0 °F 93% 30.24 in 2.5 mi NE 10.4 mph - N/A Rain Heavy Rain
1:55 PM 42.1 °F 36.1 °F 40.8 °F 95% 30.24 in 2.5 mi NE 10.4 mph - 0.20 in Rain Light Rain
1:56 PM 42.8 °F 37.0 °F 41.0 °F 93% 30.25 in 2.5 mi NE 10.4 mph - N/A Rain Light Rain
1:57 PM 42.8 °F 37.0 °F 41.0 °F 93% 30.25 in 3.0 mi NE 10.4 mph - N/A Rain Light Rain
2:11 PM 42.8 °F 38.6 °F 41.0 °F 93% 30.25 in 5.0 mi NE 6.9 mph - N/A   Overcast
2:12 PM 42.8 °F 39.3 °F 41.0 °F 93% 30.25 in 5.0 mi NNE 5.8 mph - N/A   Overcast
2:55 PM 43.5 °F 37.9 °F 42.1 °F 95% 30.22 in 4.0 mi NNE 10.4 mph - 0.00 in   Mostly Cloudy
3:01 PM 42.8 °F 40.1 °F 42.8 °F 100% 30.24 in 6.0 mi NNE 4.6 mph - N/A   Mostly Cloudy
3:19 PM 44.6 °F 41.4 °F 42.8 °F 93% 30.25 in 10.0 mi NW 5.8 mph - N/A   Overcast
3:36 PM 44.6 °F 43.1 °F 42.8 °F 93% 30.25 in 10.0 mi NW 3.5 mph - N/A   Overcast
3:49 PM 44.6 °F 41.4 °F 42.8 °F 93% 30.25 in 10.0 mi North 5.8 mph - N/A Rain Light Rain
3:55 PM 44.4 °F 40.0 °F 42.4 °F 93% 30.25 in 10.0 mi North 8.1 mph - 0.00 in Rain Light Rain
4:06 PM 44.6 °F 43.1 °F 42.8 °F 93% 30.26 in 10.0 mi North 3.5 mph - N/A Rain Light Rain
4:21 PM 44.6 °F 43.1 °F 42.8 °F 93% 30.26 in 10.0 mi North 3.5 mph - N/A   Overcast
4:49 PM 44.6 °F 41.4 °F 42.8 °F 93% 30.26 in 10.0 mi North 5.8 mph - N/A   Overcast
4:55 PM 44.6 °F 43.1 °F 42.6 °F 93% 30.27 in 10.0 mi NNE 3.5 mph - 0.00 in   Overcast
5:33 PM 44.6 °F 42.2 °F 42.8 °F 93% 30.26 in 10.0 mi NNE 4.6 mph - N/A   Overcast
5:36 PM 44.6 °F 43.1 °F 42.8 °F 93% 30.26 in 10.0 mi North 3.5 mph - N/A   Overcast
5:55 PM 44.4 °F 42.0 °F 42.8 °F 94% 30.26 in 10.0 mi Variable 4.6 mph - N/A   Overcast
6:05 PM 44.6 °F 40.7 °F 42.8 °F 93% 30.26 in 10.0 mi NNE 6.9 mph - N/A   Overcast
6:16 PM 44.6 °F 41.4 °F 42.8 °F 93% 30.26 in 10.0 mi NNE 5.8 mph - N/A   Overcast
6:21 PM 44.6 °F 41.4 °F 42.8 °F 93% 30.26 in 9.0 mi NE 5.8 mph - N/A   Overcast
6:32 PM 44.6 °F 41.4 °F 42.8 °F 93% 30.26 in 9.0 mi NE 5.8 mph - N/A   Overcast
6:53 PM 44.6 °F 42.2 °F 42.8 °F 93% 30.27 in 10.0 mi North 4.6 mph - N/A   Overcast
6:55 PM 44.4 °F 42.9 °F 42.8 °F 94% 30.26 in 10.0 mi NNE 3.5 mph - N/A   Overcast
7:05 PM 44.6 °F 40.7 °F 42.8 °F 93% 30.26 in 10.0 mi NE 6.9 mph - N/A   Overcast
7:23 PM 44.6 °F 41.4 °F 42.8 °F 93% 30.26 in 10.0 mi North 5.8 mph - N/A   Overcast
7:24 PM 44.6 °F 41.4 °F 42.8 °F 93% 30.26 in 10.0 mi NNE 5.8 mph - N/A   Overcast
7:25 PM 44.6 °F 42.2 °F 42.8 °F 93% 30.26 in 10.0 mi North 4.6 mph - N/A   Overcast
7:28 PM 44.6 °F 42.2 °F 42.8 °F 93% 30.26 in 10.0 mi NNE 4.6 mph - N/A   Overcast
7:51 PM 44.6 °F 43.1 °F 42.8 °F 93% 30.27 in 10.0 mi North 3.5 mph - N/A   Overcast
7:55 PM 44.6 °F - 43.2 °F 95% 30.27 in 10.0 mi Calm Calm - N/A   Overcast
8:01 PM 44.6 °F - 42.8 °F 93% 30.27 in 10.0 mi Calm Calm - N/A   Overcast
8:39 PM 44.6 °F 41.4 °F 42.8 °F 93% 30.27 in 10.0 mi North 5.8 mph - N/A   Overcast
8:55 PM 44.6 °F 40.2 °F 43.2 °F 95% 30.28 in 10.0 mi North 8.1 mph - N/A   Overcast
9:13 PM 44.6 °F 42.2 °F 42.8 °F 93% 30.28 in 10.0 mi North 4.6 mph - N/A   Overcast
9:14 PM 44.6 °F 41.4 °F 42.8 °F 93% 30.28 in 10.0 mi North 5.8 mph - N/A   Overcast
9:19 PM 44.6 °F 40.7 °F 42.8 °F 93% 30.28 in 10.0 mi North 6.9 mph - N/A   Overcast
9:21 PM 44.6 °F 39.7 °F 42.8 °F 93% 30.28 in 10.0 mi North 9.2 mph - N/A   Overcast
9:26 PM 44.6 °F 40.2 °F 42.8 °F 93% 30.28 in 10.0 mi North 8.1 mph - N/A   Overcast
9:27 PM 44.6 °F 40.2 °F 42.8 °F 93% 30.28 in 10.0 mi North 8.1 mph - N/A   Overcast
9:29 PM 44.6 °F 40.2 °F 42.8 °F 93% 30.28 in 10.0 mi North 8.1 mph - N/A   Overcast
9:31 PM 44.6 °F 40.2 °F 42.8 °F 93% 30.28 in 10.0 mi North 8.1 mph - N/A   Overcast
9:32 PM 44.6 °F 40.2 °F 42.8 °F 93% 30.28 in 10.0 mi North 8.1 mph - N/A   Overcast
9:35 PM 44.6 °F 40.7 °F 42.8 °F 93% 30.28 in 10.0 mi North 6.9 mph - N/A   Overcast
9:44 PM 44.6 °F 40.7 °F 42.8 °F 93% 30.27 in 10.0 mi North 6.9 mph - N/A   Overcast
9:52 PM 44.6 °F 42.2 °F 42.8 °F 93% 30.28 in 10.0 mi NNE 4.6 mph - N/A   Overcast
9:55 PM 44.8 °F 41.0 °F 43.5 °F 95% 30.28 in 10.0 mi North 6.9 mph - N/A   Overcast
10:12 PM 44.6 °F 40.7 °F 42.8 °F 93% 30.27 in 9.0 mi NNE 6.9 mph - N/A   Light Drizzle
10:21 PM 44.6 °F 41.4 °F 42.8 °F 93% 30.27 in 10.0 mi NNE 5.8 mph - N/A   Overcast
10:24 PM 44.6 °F 41.4 °F 42.8 °F 93% 30.27 in 9.0 mi NNE 5.8 mph - N/A   Overcast
10:55 PM 45.0 °F 41.8 °F 43.5 °F 95% 30.27 in 8.0 mi NNE 5.8 mph - 0.00 in   Overcast
10:58 PM 44.6 °F 42.2 °F 42.8 °F 93% 30.27 in 7.0 mi NNE 4.6 mph - N/A   Overcast
11:06 PM 44.6 °F 40.7 °F 42.8 °F 93% 30.27 in 7.0 mi NE 6.9 mph - N/A   Overcast
11:17 PM 44.6 °F 40.7 °F 42.8 °F 93% 30.27 in 8.0 mi NNE 6.9 mph - N/A   Overcast
11:28 PM 44.6 °F 40.7 °F 42.8 °F 93% 30.28 in 10.0 mi NNE 6.9 mph - N/A   Overcast
11:55 PM 45.1 °F 42.8 °F 43.5 °F 94% 30.27 in 10.0 mi NNE 4.6 mph - N/A   Overcast